createdAt,value
2023-06-15T07:46:18.169Z,94394.00
2023-06-15T07:46:29.474Z,94396.00
2023-06-15T07:46:41.048Z,94396.00
2023-06-15T07:46:52.076Z,94396.00
2023-06-15T07:47:03.654Z,94394.00
2023-06-15T07:47:14.968Z,94394.00
2023-06-15T07:47:26.556Z,94396.00
2023-06-15T07:47:37.918Z,94394.00
2023-06-15T07:47:49.580Z,94392.00
2023-06-15T07:48:00.907Z,94396.00
2023-06-15T07:48:12.639Z,94394.00
2023-06-15T07:48:23.973Z,94396.00
2023-06-15T07:48:35.568Z,94397.00
2023-06-15T07:48:47.010Z,94396.00
2023-06-15T07:48:58.633Z,94396.00
2023-06-15T07:49:10.015Z,94396.00
2023-06-15T07:49:32.803Z,94396.00
2023-06-15T07:49:45.521Z,94396.00
2023-06-15T07:49:47.224Z,94396.00
2023-06-15T07:49:56.784Z,94397.00
2023-06-15T07:50:08.378Z,94396.00
2023-06-15T07:50:19.957Z,94396.00
2023-06-15T07:50:31.636Z,94394.00
2023-06-15T07:50:42.956Z,94397.00
2023-06-15T07:50:54.569Z,94394.00
2023-06-15T07:51:05.895Z,94394.00
2023-06-15T07:51:32.005Z,94394.00
2023-06-15T07:51:40.711Z,94396.00
2023-06-15T07:51:50.361Z,94396.00
2023-06-15T07:52:01.017Z,94396.00
2023-06-15T07:52:10.655Z,94396.00
2023-06-15T07:52:17.334Z,94394.00
2023-06-15T07:52:28.664Z,94392.00
2023-06-15T07:52:40.279Z,94396.00
2023-06-15T07:52:51.617Z,94396.00
2023-06-15T07:53:03.193Z,94397.00
2023-06-15T07:53:14.517Z,94396.00
2023-06-15T07:53:26.079Z,94397.00
2023-06-15T07:53:37.427Z,94396.00
2023-06-15T07:53:49.002Z,94394.00
2023-06-15T07:54:00.359Z,94394.00
2023-06-15T07:54:11.936Z,94396.00
2023-06-15T07:54:23.242Z,94396.00
2023-06-15T07:54:34.829Z,94397.00
2023-06-15T07:54:46.117Z,94396.00
2023-06-15T07:54:57.728Z,94396.00
2023-06-15T07:55:09.010Z,94397.00
2023-06-15T07:55:20.609Z,94397.00
2023-06-15T07:55:31.948Z,94396.00
2023-06-15T07:55:43.524Z,94394.00
2023-06-15T07:55:54.862Z,94394.00
2023-06-15T07:56:06.429Z,94397.00
2023-06-15T07:56:17.754Z,94396.00
2023-06-15T07:56:29.357Z,94399.00
2023-06-15T07:56:40.692Z,94399.00
2023-06-15T07:56:52.269Z,94397.00
2023-06-15T07:57:03.585Z,94397.00
2023-06-15T07:57:15.188Z,94399.00
2023-06-15T07:57:26.516Z,94396.00
2023-06-15T07:57:38.096Z,94397.00
2023-06-15T07:57:49.397Z,94399.00
2023-06-15T07:58:00.969Z,94396.00
2023-06-15T07:58:12.286Z,94397.00
2023-06-15T07:58:23.877Z,94399.00
2023-06-15T07:58:37.258Z,94399.00
2023-06-15T07:58:45.697Z,94397.00
2023-06-15T07:58:57.054Z,94401.00
2023-06-15T07:59:08.690Z,94397.00
2023-06-15T07:59:20.078Z,94397.00
2023-06-15T07:59:31.690Z,94401.00
2023-06-15T07:59:43.092Z,94401.00
2023-06-15T07:59:54.713Z,94401.00
2023-06-15T08:00:06.109Z,94399.00
2023-06-15T08:00:17.987Z,94401.00
2023-06-15T08:00:29.765Z,94401.00
2023-06-15T08:00:41.095Z,94401.00
2023-06-15T08:00:52.710Z,94401.00
2023-06-15T08:01:04.100Z,94399.00
2023-06-15T08:01:15.750Z,94403.00
2023-06-15T08:01:27.239Z,94401.00
2023-06-15T08:01:38.799Z,94399.00
2023-06-15T08:01:50.121Z,94397.00
2023-06-15T08:02:01.698Z,94399.00
2023-06-15T08:02:13.063Z,94401.00
2023-06-15T08:02:24.723Z,94399.00
2023-06-15T08:02:36.118Z,94401.00
2023-06-15T08:02:47.749Z,94399.00
2023-06-15T08:02:59.110Z,94401.00
2023-06-15T08:03:10.837Z,94401.00
2023-06-15T08:03:22.291Z,94403.00
2023-06-15T08:03:34.046Z,94401.00
2023-06-15T08:03:45.462Z,94401.00
2023-06-15T08:03:57.091Z,94399.00
2023-06-15T08:04:08.482Z,94401.00
2023-06-15T08:04:20.141Z,94399.00
2023-06-15T08:04:31.481Z,94397.00
2023-06-15T08:04:43.063Z,94399.00
2023-06-15T08:04:54.370Z,94399.00
2023-06-15T08:05:05.926Z,94399.00
2023-06-15T08:05:17.286Z,94401.00
2023-06-15T08:05:28.903Z,94399.00
2023-06-15T08:05:40.224Z,94397.00
2023-06-15T08:05:51.827Z,94401.00
2023-06-15T08:06:03.142Z,94399.00
2023-06-15T08:06:14.739Z,94401.00
2023-06-15T08:06:26.069Z,94401.00
2023-06-15T08:06:37.631Z,94399.00
2023-06-15T08:06:48.949Z,94399.00
2023-06-15T08:07:00.566Z,94397.00
2023-06-15T08:07:11.925Z,94397.00
2023-06-15T08:07:23.519Z,94399.00
2023-06-15T08:07:34.861Z,94401.00
2023-06-15T08:07:46.451Z,94399.00
2023-06-15T08:07:57.812Z,94401.00
2023-06-15T08:08:09.393Z,94401.00
2023-06-15T08:08:20.720Z,94401.00
2023-06-15T08:08:32.286Z,94401.00
2023-06-15T08:08:43.630Z,94401.00
2023-06-15T08:08:55.380Z,94403.00
2023-06-15T08:09:06.809Z,94401.00
2023-06-15T08:09:18.456Z,94401.00
2023-06-15T08:09:29.775Z,94401.00
2023-06-15T08:09:41.378Z,94401.00
2023-06-15T08:09:53.021Z,94401.00
2023-06-15T08:10:04.592Z,94399.00
2023-06-15T08:10:16.320Z,94403.00
2023-06-15T08:10:28.205Z,94401.00
2023-06-15T08:10:42.324Z,94403.00
2023-06-15T08:10:49.695Z,94401.00
2023-06-15T08:11:01.064Z,94403.00
2023-06-15T08:11:12.629Z,94403.00
2023-06-15T08:11:23.968Z,94403.00
2023-06-15T08:11:35.558Z,94403.00
2023-06-15T08:11:46.874Z,94401.00
2023-06-15T08:11:58.466Z,94401.00
2023-06-15T08:12:09.783Z,94405.00
2023-06-15T08:12:21.914Z,94407.00
2023-06-15T08:12:33.252Z,94405.00
2023-06-15T08:12:44.826Z,94405.00
2023-06-15T08:12:56.142Z,94405.00
2023-06-15T08:13:07.760Z,94405.00
2023-06-15T08:13:19.106Z,94407.00
2023-06-15T08:13:30.698Z,94405.00
2023-06-15T08:13:42.022Z,94407.00
2023-06-15T08:13:53.603Z,94405.00
2023-06-15T08:14:04.970Z,94405.00
2023-06-15T08:14:16.534Z,94405.00
2023-06-15T08:14:27.856Z,94407.00
2023-06-15T08:14:39.444Z,94403.00
2023-06-15T08:14:51.547Z,94405.00
2023-06-15T08:15:02.870Z,94405.00
2023-06-15T08:15:14.438Z,94405.00
2023-06-15T08:15:25.759Z,94405.00
2023-06-15T08:15:37.352Z,94403.00
2023-06-15T08:15:48.678Z,94407.00
2023-06-15T08:16:00.252Z,94405.00
2023-06-15T08:16:11.567Z,94405.00
2023-06-15T08:16:23.157Z,94405.00
2023-06-15T08:16:35.752Z,94405.00
2023-06-15T08:16:45.049Z,94405.00
2023-06-15T08:16:56.625Z,94403.00
2023-06-15T08:17:08.437Z,94405.00
2023-06-15T08:17:18.442Z,94403.00
2023-06-15T08:17:30.041Z,94403.00
2023-06-15T08:17:41.397Z,94403.00
2023-06-15T08:17:53.003Z,94401.00
2023-06-15T08:18:04.365Z,94405.00
2023-06-15T08:18:16.020Z,94403.00
2023-06-15T08:18:27.339Z,94405.00
2023-06-15T08:18:38.929Z,94403.00
2023-06-15T08:18:50.253Z,94401.00
2023-06-15T08:19:01.856Z,94407.00
2023-06-15T08:19:13.223Z,94405.00
2023-06-15T08:19:24.821Z,94405.00
2023-06-15T08:19:36.152Z,94405.00
2023-06-15T08:19:47.889Z,94403.00
2023-06-15T08:19:59.240Z,94403.00
2023-06-15T08:20:10.894Z,94403.00
2023-06-15T08:20:22.173Z,94403.00
2023-06-15T08:20:33.757Z,94403.00
2023-06-15T08:20:45.109Z,94405.00
2023-06-15T08:20:56.698Z,94407.00
2023-06-15T08:21:08.040Z,94405.00
2023-06-15T08:21:19.625Z,94405.00
2023-06-15T08:21:30.963Z,94405.00
2023-06-15T08:21:42.554Z,94405.00
2023-06-15T08:21:53.888Z,94403.00
2023-06-15T08:22:05.468Z,94407.00
2023-06-15T08:22:16.770Z,94403.00
2023-06-15T08:22:28.361Z,94407.00
2023-06-15T08:22:39.679Z,94401.00
2023-06-15T08:22:51.249Z,94405.00
2023-06-15T08:23:02.560Z,94407.00
2023-06-15T08:23:14.144Z,94403.00
2023-06-15T08:23:25.550Z,94403.00
2023-06-15T08:23:37.137Z,94403.00
2023-06-15T08:23:48.503Z,94403.00
2023-06-15T08:24:00.143Z,94403.00
2023-06-15T08:24:11.522Z,94405.00
2023-06-15T08:24:23.197Z,94405.00
2023-06-15T08:24:34.622Z,94403.00
2023-06-15T08:24:46.256Z,94405.00
2023-06-15T08:24:57.586Z,94403.00
2023-06-15T08:25:09.198Z,94403.00
2023-06-15T08:25:20.538Z,94403.00
2023-06-15T08:25:32.135Z,94403.00
2023-06-15T08:25:43.447Z,94403.00
2023-06-15T08:25:55.027Z,94405.00
2023-06-15T08:26:06.374Z,94405.00
2023-06-15T08:26:17.960Z,94403.00
2023-06-15T08:26:29.321Z,94403.00
2023-06-15T08:26:40.889Z,94403.00
2023-06-15T08:26:52.229Z,94401.00
2023-06-15T08:27:03.822Z,94401.00
2023-06-15T08:27:15.124Z,94407.00
2023-06-15T08:27:26.727Z,94405.00
2023-06-15T08:27:38.049Z,94401.00
2023-06-15T08:27:49.626Z,94403.00
2023-06-15T08:28:00.963Z,94405.00
2023-06-15T08:28:12.563Z,94405.00
2023-06-15T08:28:23.873Z,94405.00
2023-06-15T08:28:48.193Z,94405.00
2023-06-15T08:28:53.911Z,94401.00
2023-06-15T08:29:13.526Z,94403.00
2023-06-15T08:29:22.434Z,94401.00
2023-06-15T08:29:24.789Z,94403.00
2023-06-15T08:29:34.333Z,94407.00
2023-06-15T08:29:45.960Z,94403.00
2023-06-15T08:29:57.257Z,94403.00
2023-06-15T08:30:08.830Z,94403.00
2023-06-15T08:30:20.390Z,94405.00
2023-06-15T08:30:32.102Z,94405.00
2023-06-15T08:30:43.463Z,94405.00
2023-06-15T08:30:55.033Z,94405.00
2023-06-15T08:31:06.368Z,94405.00
2023-06-15T08:31:17.970Z,94405.00
2023-06-15T08:31:29.298Z,94405.00
2023-06-15T08:31:43.025Z,94407.00
2023-06-15T08:31:50.950Z,94407.00
2023-06-15T08:32:02.272Z,94407.00
2023-06-15T08:32:13.858Z,94407.00
2023-06-15T08:32:25.260Z,94405.00
2023-06-15T08:32:36.861Z,94407.00
2023-06-15T08:32:48.235Z,94405.00
2023-06-15T08:32:59.872Z,94407.00
2023-06-15T08:33:11.204Z,94405.00
2023-06-15T08:33:22.820Z,94407.00
2023-06-15T08:33:34.111Z,94405.00
2023-06-15T08:33:45.713Z,94407.00
2023-06-15T08:33:57.041Z,94405.00
2023-06-15T08:34:08.626Z,94405.00
2023-06-15T08:34:19.972Z,94403.00
2023-06-15T08:34:31.553Z,94405.00
2023-06-15T08:34:42.872Z,94405.00
2023-06-15T08:34:54.454Z,94405.00
2023-06-15T08:35:05.765Z,94403.00
2023-06-15T08:35:17.353Z,94403.00
2023-06-15T08:35:28.701Z,94403.00
2023-06-15T08:35:40.260Z,94403.00
2023-06-15T08:35:51.651Z,94401.00
2023-06-15T08:36:03.265Z,94401.00
2023-06-15T08:36:14.585Z,94399.00
2023-06-15T08:36:26.149Z,94399.00
2023-06-15T08:36:37.480Z,94401.00
2023-06-15T08:36:49.060Z,94401.00
2023-06-15T08:37:00.385Z,94401.00
2023-06-15T08:37:11.979Z,94401.00
2023-06-15T08:37:23.341Z,94399.00
2023-06-15T08:37:34.913Z,94399.00
2023-06-15T08:37:46.228Z,94399.00
2023-06-15T08:37:57.807Z,94399.00
2023-06-15T08:38:09.134Z,94399.00
2023-06-15T08:38:20.708Z,94397.00
2023-06-15T08:38:32.024Z,94401.00
2023-06-15T08:38:43.617Z,94399.00
2023-06-15T08:38:54.937Z,94401.00
2023-06-15T08:39:06.534Z,94397.00
2023-06-15T08:39:17.852Z,94394.00
2023-06-15T08:39:29.423Z,94397.00
2023-06-15T08:39:40.731Z,94397.00
2023-06-15T08:39:52.310Z,94397.00
2023-06-15T08:40:03.664Z,94397.00
2023-06-15T08:40:15.534Z,94399.00
2023-06-15T08:40:27.460Z,94397.00
2023-06-15T08:40:38.788Z,94397.00
2023-06-15T08:40:50.365Z,94399.00
2023-06-15T08:41:01.692Z,94397.00
2023-06-15T08:41:13.264Z,94394.00
2023-06-15T08:41:24.583Z,94397.00
2023-06-15T08:41:36.174Z,94397.00
2023-06-15T08:41:47.516Z,94396.00
2023-06-15T08:41:59.087Z,94399.00
2023-06-15T08:42:10.426Z,94397.00
2023-06-15T08:42:21.995Z,94397.00
2023-06-15T08:42:33.321Z,94397.00
2023-06-15T08:42:44.937Z,94397.00
2023-06-15T08:42:56.244Z,94397.00
2023-06-15T08:43:07.826Z,94396.00
2023-06-15T08:43:19.162Z,94397.00
2023-06-15T08:43:30.746Z,94396.00
2023-06-15T08:43:42.069Z,94394.00
2023-06-15T08:43:53.806Z,94396.00
2023-06-15T08:44:05.144Z,94397.00
2023-06-15T08:44:16.745Z,94394.00
2023-06-15T08:44:28.091Z,94396.00
2023-06-15T08:44:39.701Z,94396.00
2023-06-15T08:44:51.084Z,94396.00
2023-06-15T08:45:02.697Z,94394.00
2023-06-15T08:45:14.039Z,94394.00
2023-06-15T08:45:25.612Z,94394.00
2023-06-15T08:45:36.955Z,94392.00
2023-06-15T08:45:48.545Z,94397.00
2023-06-15T08:45:59.871Z,94392.00
2023-06-15T08:46:11.445Z,94396.00
2023-06-15T08:46:22.760Z,94396.00
2023-06-15T08:46:34.346Z,94396.00
2023-06-15T08:46:45.716Z,94396.00
2023-06-15T08:46:57.277Z,94394.00
2023-06-15T08:47:08.592Z,94394.00
2023-06-15T08:47:20.177Z,94394.00
2023-06-15T08:47:31.529Z,94394.00
2023-06-15T08:47:43.173Z,94396.00
2023-06-15T08:47:54.557Z,94396.00
2023-06-15T08:48:06.154Z,94394.00
2023-06-15T08:48:17.482Z,94394.00
2023-06-15T08:48:29.069Z,94394.00
2023-06-15T08:48:40.390Z,94396.00
2023-06-15T08:48:51.969Z,94394.00
2023-06-15T08:49:03.301Z,94394.00
2023-06-15T08:49:14.878Z,94394.00
2023-06-15T08:49:26.193Z,94394.00
2023-06-15T08:49:37.809Z,94392.00
2023-06-15T08:49:49.128Z,94392.00
2023-06-15T08:50:00.728Z,94392.00
2023-06-15T08:50:12.065Z,94392.00
2023-06-15T08:50:23.613Z,94394.00
2023-06-15T08:50:34.927Z,94396.00
2023-06-15T08:50:47.507Z,94392.00
2023-06-15T08:50:57.592Z,94392.00
2023-06-15T08:51:09.161Z,94394.00
2023-06-15T08:51:20.479Z,94392.00
2023-06-15T08:51:32.052Z,94392.00
2023-06-15T08:51:43.366Z,94392.00
2023-06-15T08:51:54.955Z,94390.00
2023-06-15T08:52:06.274Z,94392.00
2023-06-15T08:52:17.851Z,94392.00
2023-06-15T08:52:29.176Z,94390.00
2023-06-15T08:52:40.749Z,94392.00
2023-06-15T08:52:52.063Z,94390.00
2023-06-15T08:53:03.630Z,94392.00
2023-06-15T08:53:14.942Z,94394.00
2023-06-15T08:53:26.516Z,94394.00
2023-06-15T08:53:37.849Z,94392.00
2023-06-15T08:53:49.435Z,94392.00
2023-06-15T08:54:00.759Z,94392.00
2023-06-15T08:54:12.330Z,94392.00
2023-06-15T08:54:23.662Z,94390.00
2023-06-15T08:54:35.275Z,94390.00
2023-06-15T08:54:46.633Z,94390.00
2023-06-15T08:54:58.198Z,94392.00
2023-06-15T08:55:09.519Z,94390.00
2023-06-15T08:55:21.097Z,94390.00
2023-06-15T08:55:32.406Z,94392.00
2023-06-15T08:55:44.024Z,94390.00
2023-06-15T08:55:55.365Z,94390.00
2023-06-15T08:56:06.962Z,94390.00
2023-06-15T08:56:18.304Z,94388.00
2023-06-15T08:56:29.866Z,94388.00
2023-06-15T08:56:41.190Z,94390.00
2023-06-15T08:56:52.796Z,94388.00
2023-06-15T08:57:04.102Z,94388.00
2023-06-15T08:57:15.676Z,94388.00
2023-06-15T08:57:27.006Z,94388.00
2023-06-15T08:57:38.578Z,94390.00
2023-06-15T08:57:49.894Z,94386.00
2023-06-15T08:58:01.477Z,94386.00
2023-06-15T08:58:12.807Z,94386.00
2023-06-15T08:58:24.394Z,94384.00
2023-06-15T08:58:35.690Z,94386.00
2023-06-15T08:58:47.264Z,94386.00
2023-06-15T08:58:58.589Z,94386.00
2023-06-15T08:59:10.183Z,94388.00
2023-06-15T08:59:21.500Z,94386.00
2023-06-15T08:59:33.100Z,94384.00
2023-06-15T08:59:44.443Z,94386.00
2023-06-15T08:59:56.033Z,94388.00
2023-06-15T09:00:07.374Z,94386.00
2023-06-15T09:00:19.252Z,94386.00
2023-06-15T09:00:31.019Z,94384.00
2023-06-15T09:00:42.344Z,94386.00
2023-06-15T09:00:53.950Z,94384.00
2023-06-15T09:01:05.298Z,94386.00
2023-06-15T09:01:16.896Z,94386.00
2023-06-15T09:01:28.238Z,94386.00
2023-06-15T09:01:39.801Z,94386.00
2023-06-15T09:01:51.186Z,94386.00
2023-06-15T09:02:02.738Z,94386.00
2023-06-15T09:02:14.066Z,94384.00
2023-06-15T09:02:25.678Z,94386.00
2023-06-15T09:02:37.044Z,94386.00
2023-06-15T09:02:48.656Z,94384.00
2023-06-15T09:03:00.090Z,94386.00
2023-06-15T09:03:11.789Z,94388.00
2023-06-15T09:03:23.149Z,94384.00
2023-06-15T09:03:34.754Z,94386.00
2023-06-15T09:03:46.103Z,94388.00
2023-06-15T09:03:57.682Z,94386.00
2023-06-15T09:04:09.757Z,94388.00
2023-06-15T09:04:19.585Z,94386.00
2023-06-15T09:04:31.292Z,94386.00
2023-06-15T09:04:42.797Z,94386.00
2023-06-15T09:04:54.651Z,94386.00
2023-06-15T09:05:06.012Z,94386.00
2023-06-15T09:05:17.609Z,94386.00
2023-06-15T09:05:28.960Z,94386.00
2023-06-15T09:05:40.546Z,94384.00
2023-06-15T09:05:53.742Z,94386.00
2023-06-15T09:06:02.808Z,94384.00
2023-06-15T09:06:14.164Z,94386.00
2023-06-15T09:06:25.749Z,94384.00
2023-06-15T09:06:37.113Z,94388.00
2023-06-15T09:06:48.773Z,94386.00
2023-06-15T09:07:00.125Z,94386.00
2023-06-15T09:07:11.691Z,94386.00
2023-06-15T09:07:23.047Z,94386.00
2023-06-15T09:07:34.603Z,94384.00
2023-06-15T09:07:45.919Z,94386.00
2023-06-15T09:07:57.494Z,94386.00
2023-06-15T09:08:08.838Z,94390.00
2023-06-15T09:08:20.446Z,94388.00
2023-06-15T09:08:31.770Z,94384.00
2023-06-15T09:08:43.374Z,94388.00
2023-06-15T09:08:54.723Z,94388.00
2023-06-15T09:09:06.419Z,94388.00
2023-06-15T09:09:17.854Z,94388.00
2023-06-15T09:09:29.417Z,94388.00
2023-06-15T09:09:40.768Z,94386.00
2023-06-15T09:09:52.351Z,94386.00
2023-06-15T09:10:03.667Z,94386.00
2023-06-15T09:10:15.661Z,94386.00
2023-06-15T09:10:27.468Z,94388.00
2023-06-15T09:10:38.820Z,94388.00
2023-06-15T09:10:50.442Z,94386.00
2023-06-15T09:11:01.775Z,94388.00
2023-06-15T09:11:13.367Z,94386.00
2023-06-15T09:11:24.722Z,94388.00
2023-06-15T09:11:36.295Z,94388.00
2023-06-15T09:11:47.628Z,94388.00
2023-06-15T09:11:59.208Z,94388.00
2023-06-15T09:12:10.553Z,94386.00
2023-06-15T09:12:22.135Z,94386.00
2023-06-15T09:12:33.433Z,94390.00
2023-06-15T09:12:45.012Z,94388.00
2023-06-15T09:12:56.373Z,94388.00
2023-06-15T09:13:07.957Z,94388.00
2023-06-15T09:13:19.315Z,94388.00
2023-06-15T09:13:30.884Z,94388.00
2023-06-15T09:13:42.189Z,94388.00
2023-06-15T09:13:53.780Z,94388.00
2023-06-15T09:14:05.141Z,94386.00
2023-06-15T09:14:16.738Z,94386.00
2023-06-15T09:14:28.206Z,94388.00
2023-06-15T09:14:39.878Z,94390.00
2023-06-15T09:14:51.190Z,94388.00
2023-06-15T09:15:02.808Z,94390.00
2023-06-15T09:15:14.118Z,94390.00
2023-06-15T09:15:25.700Z,94390.00
2023-06-15T09:15:37.007Z,94388.00
2023-06-15T09:15:48.579Z,94388.00
2023-06-15T09:15:59.970Z,94388.00
2023-06-15T09:16:11.566Z,94388.00
2023-06-15T09:16:22.904Z,94390.00
2023-06-15T09:16:34.548Z,94390.00
2023-06-15T09:16:45.895Z,94388.00
2023-06-15T09:16:57.518Z,94390.00
2023-06-15T09:17:08.815Z,94388.00
2023-06-15T09:17:20.502Z,94390.00
2023-06-15T09:17:31.843Z,94388.00
2023-06-15T09:17:43.480Z,94388.00
2023-06-15T09:17:54.900Z,94388.00
2023-06-15T09:18:06.484Z,94388.00
2023-06-15T09:18:17.836Z,94388.00
2023-06-15T09:18:29.428Z,94390.00
2023-06-15T09:18:40.756Z,94390.00
2023-06-15T09:18:52.380Z,94388.00
2023-06-15T09:19:03.681Z,94390.00
2023-06-15T09:19:15.265Z,94390.00
2023-06-15T09:19:26.630Z,94388.00
2023-06-15T09:19:38.179Z,94388.00
2023-06-15T09:19:49.489Z,94388.00
2023-06-15T09:20:01.089Z,94392.00
2023-06-15T09:20:12.441Z,94392.00
2023-06-15T09:20:24.042Z,94390.00
2023-06-15T09:20:35.382Z,94388.00
2023-06-15T09:20:46.967Z,94392.00
2023-06-15T09:20:58.269Z,94390.00
2023-06-15T09:21:09.865Z,94390.00
2023-06-15T09:21:21.182Z,94390.00
2023-06-15T09:21:32.777Z,94390.00
2023-06-15T09:21:44.076Z,94388.00
2023-06-15T09:21:55.652Z,94390.00
2023-06-15T09:22:06.976Z,94390.00
2023-06-15T09:22:18.593Z,94388.00
2023-06-15T09:22:30.016Z,94392.00
2023-06-15T09:22:41.600Z,94392.00
2023-06-15T09:22:52.944Z,94390.00
2023-06-15T09:23:04.522Z,94390.00
2023-06-15T09:23:15.860Z,94388.00
2023-06-15T09:23:27.479Z,94390.00
2023-06-15T09:23:38.796Z,94388.00
2023-06-15T09:23:50.436Z,94388.00
2023-06-15T09:24:01.811Z,94388.00
2023-06-15T09:24:13.466Z,94388.00
2023-06-15T09:24:25.055Z,94388.00
2023-06-15T09:24:36.761Z,94388.00
2023-06-15T09:24:48.158Z,94388.00
2023-06-15T09:24:59.734Z,94388.00
2023-06-15T09:25:11.081Z,94390.00
2023-06-15T09:25:22.687Z,94390.00
2023-06-15T09:25:34.000Z,94390.00
2023-06-15T09:25:46.054Z,94390.00
2023-06-15T09:25:57.654Z,94388.00
2023-06-15T09:26:08.979Z,94388.00
2023-06-15T09:26:20.552Z,94388.00
2023-06-15T09:26:31.891Z,94388.00
2023-06-15T09:26:43.474Z,94388.00
2023-06-15T09:26:54.800Z,94388.00
2023-06-15T09:27:06.375Z,94390.00
2023-06-15T09:27:16.500Z,94392.00
2023-06-15T09:27:28.080Z,94386.00
2023-06-15T09:27:39.396Z,94388.00
2023-06-15T09:27:51.660Z,94388.00
2023-06-15T09:28:03.227Z,94386.00
2023-06-15T09:28:14.556Z,94388.00
2023-06-15T09:28:26.132Z,94388.00
2023-06-15T09:28:37.485Z,94388.00
2023-06-15T09:28:49.080Z,94386.00
2023-06-15T09:29:00.405Z,94384.00
2023-06-15T09:29:12.005Z,94386.00
2023-06-15T09:29:23.333Z,94386.00
2023-06-15T09:29:34.909Z,94384.00
2023-06-15T09:29:46.233Z,94384.00
2023-06-15T09:29:57.837Z,94388.00
2023-06-15T09:30:09.195Z,94384.00
2023-06-15T09:30:21.042Z,94388.00
2023-06-15T09:30:32.475Z,94386.00
2023-06-15T09:30:44.065Z,94386.00
2023-06-15T09:30:55.405Z,94384.00
2023-06-15T09:31:06.981Z,94386.00
2023-06-15T09:31:18.306Z,94386.00
2023-06-15T09:31:29.876Z,94384.00
2023-06-15T09:31:41.172Z,94384.00
2023-06-15T09:31:52.747Z,94384.00
2023-06-15T09:32:04.097Z,94386.00
2023-06-15T09:32:15.651Z,94384.00
2023-06-15T09:32:26.990Z,94384.00
2023-06-15T09:32:38.590Z,94382.00
2023-06-15T09:32:49.930Z,94382.00
2023-06-15T09:33:01.529Z,94384.00
2023-06-15T09:33:12.939Z,94390.00
2023-06-15T09:33:24.761Z,94388.00
2023-06-15T09:33:36.083Z,94386.00
2023-06-15T09:33:49.403Z,94386.00
2023-06-15T09:33:57.667Z,94388.00
2023-06-15T09:34:08.987Z,94386.00
2023-06-15T09:34:20.568Z,94386.00
2023-06-15T09:34:31.891Z,94386.00
2023-06-15T09:34:43.470Z,94386.00
2023-06-15T09:34:54.798Z,94386.00
2023-06-15T09:35:06.392Z,94386.00
2023-06-15T09:35:17.701Z,94386.00
2023-06-15T09:35:29.282Z,94384.00
2023-06-15T09:35:40.594Z,94386.00
2023-06-15T09:35:52.195Z,94384.00
2023-06-15T09:36:03.559Z,94386.00
2023-06-15T09:36:15.161Z,94384.00
2023-06-15T09:36:26.507Z,94386.00
2023-06-15T09:36:38.105Z,94384.00
2023-06-15T09:36:49.427Z,94386.00
2023-06-15T09:37:01.000Z,94386.00
2023-06-15T09:37:12.348Z,94386.00
2023-06-15T09:37:23.967Z,94386.00
2023-06-15T09:37:35.317Z,94386.00
2023-06-15T09:37:46.898Z,94384.00
2023-06-15T09:37:58.207Z,94384.00
2023-06-15T09:38:09.780Z,94386.00
2023-06-15T09:38:21.126Z,94384.00
2023-06-15T09:38:32.742Z,94386.00
2023-06-15T09:38:44.137Z,94384.00
2023-06-15T09:38:55.706Z,94384.00
2023-06-15T09:39:07.053Z,94386.00
2023-06-15T09:39:18.656Z,94384.00
2023-06-15T09:39:29.966Z,94386.00
2023-06-15T09:39:41.561Z,94384.00
2023-06-15T09:39:52.897Z,94384.00
2023-06-15T09:40:04.491Z,94386.00
2023-06-15T09:40:16.198Z,94386.00
2023-06-15T09:40:28.065Z,94384.00
2023-06-15T09:40:39.402Z,94384.00
2023-06-15T09:40:51.001Z,94386.00
2023-06-15T09:41:02.324Z,94384.00
2023-06-15T09:41:13.904Z,94386.00
2023-06-15T09:41:25.245Z,94384.00
2023-06-15T09:41:36.814Z,94386.00
2023-06-15T09:41:48.144Z,94386.00
2023-06-15T09:41:59.735Z,94388.00
2023-06-15T09:42:11.032Z,94386.00
2023-06-15T09:42:22.598Z,94384.00
2023-06-15T09:42:33.915Z,94386.00
2023-06-15T09:42:45.508Z,94386.00
2023-06-15T09:42:56.813Z,94384.00
2023-06-15T09:43:08.377Z,94384.00
2023-06-15T09:43:19.694Z,94384.00
2023-06-15T09:43:31.282Z,94382.00
2023-06-15T09:43:42.708Z,94384.00
2023-06-15T09:43:54.280Z,94382.00
2023-06-15T09:44:05.600Z,94384.00
2023-06-15T09:44:17.180Z,94374.00
2023-06-15T09:44:28.552Z,94384.00
2023-06-15T09:44:40.123Z,94384.00
2023-06-15T09:44:51.476Z,94374.00
2023-06-15T09:45:03.058Z,94384.00
2023-06-15T09:45:14.392Z,94382.00
2023-06-15T09:45:25.981Z,94382.00
2023-06-15T09:45:38.310Z,94384.00
2023-06-15T09:45:47.679Z,94382.00
2023-06-15T09:45:59.266Z,94384.00
2023-06-15T09:46:10.610Z,94384.00
2023-06-15T09:46:22.205Z,94382.00
2023-06-15T09:46:33.493Z,94382.00
2023-06-15T09:46:45.075Z,94384.00
2023-06-15T09:46:56.393Z,94384.00
2023-06-15T09:47:08.007Z,94384.00
2023-06-15T09:47:19.309Z,94382.00
2023-06-15T09:47:30.952Z,94382.00
2023-06-15T09:47:42.333Z,94386.00
2023-06-15T09:47:53.977Z,94384.00
2023-06-15T09:48:05.313Z,94382.00
2023-06-15T09:48:16.979Z,94382.00
2023-06-15T09:48:28.278Z,94384.00
2023-06-15T09:48:39.870Z,94382.00
2023-06-15T09:48:51.197Z,94382.00
2023-06-15T09:49:02.767Z,94382.00
2023-06-15T09:49:14.069Z,94382.00
2023-06-15T09:49:25.637Z,94382.00
2023-06-15T09:49:36.952Z,94374.00
2023-06-15T09:49:48.537Z,94374.00
2023-06-15T09:49:59.857Z,94382.00
2023-06-15T09:50:11.449Z,94382.00
2023-06-15T09:50:22.774Z,94382.00
2023-06-15T09:50:34.364Z,94382.00
2023-06-15T09:50:45.670Z,94384.00
2023-06-15T09:50:57.248Z,94384.00
2023-06-15T09:51:08.568Z,94382.00
2023-06-15T09:51:20.146Z,94382.00
2023-06-15T09:51:32.913Z,94382.00
2023-06-15T09:51:42.264Z,94384.00
2023-06-15T09:51:53.847Z,94374.00
2023-06-15T09:52:05.166Z,94382.00
2023-06-15T09:52:16.732Z,94382.00
2023-06-15T09:52:28.070Z,94374.00
2023-06-15T09:52:39.649Z,94382.00
2023-06-15T09:52:50.975Z,94382.00
2023-06-15T09:53:02.570Z,94384.00
2023-06-15T09:53:13.915Z,94384.00
2023-06-15T09:53:25.506Z,94384.00
2023-06-15T09:53:36.854Z,94382.00
2023-06-15T09:53:48.445Z,94382.00
2023-06-15T09:53:59.777Z,94382.00
2023-06-15T09:54:11.375Z,94382.00
2023-06-15T09:54:22.698Z,94386.00
2023-06-15T09:54:34.288Z,94382.00
2023-06-15T09:54:45.619Z,94382.00
2023-06-15T09:54:57.211Z,94384.00
2023-06-15T09:55:08.529Z,94384.00
2023-06-15T09:55:20.107Z,94382.00
2023-06-15T09:55:31.490Z,94384.00
2023-06-15T09:55:43.053Z,94386.00
2023-06-15T09:55:54.396Z,94384.00
2023-06-15T09:56:17.288Z,94386.00
2023-06-15T09:56:29.957Z,94386.00
2023-06-15T09:56:31.765Z,94384.00
2023-06-15T09:56:41.276Z,94384.00
2023-06-15T09:56:52.842Z,94384.00
2023-06-15T09:57:04.169Z,94384.00
2023-06-15T09:57:15.748Z,94386.00
2023-06-15T09:57:27.050Z,94384.00
2023-06-15T09:57:38.621Z,94384.00
2023-06-15T09:57:49.959Z,94384.00
2023-06-15T09:58:01.533Z,94382.00
2023-06-15T09:58:12.848Z,94382.00
2023-06-15T09:58:24.439Z,94374.00
2023-06-15T09:58:35.791Z,94382.00
2023-06-15T09:58:47.344Z,94382.00
2023-06-15T09:58:58.705Z,94382.00
2023-06-15T09:59:10.302Z,94382.00
2023-06-15T09:59:21.655Z,94374.00
2023-06-15T09:59:33.252Z,94374.00
2023-06-15T09:59:44.571Z,94374.00
2023-06-15T09:59:56.268Z,94382.00
2023-06-15T10:00:07.601Z,94372.00
2023-06-15T10:00:19.435Z,94374.00
2023-06-15T10:00:31.221Z,94372.00
2023-06-15T10:00:42.560Z,94370.00
2023-06-15T10:00:54.130Z,94382.00